Time;durP1;ratioP1;P1;durP2;ratioP2;P2;SDS_P1;SDS_P2;PMS_P1;PMS_P2;Temp;Humidity;BMP_temperature;BMP_pressure;BME280_temperature;BME280_humidity;BME280_pressure;Samples;Min_cycle;Max_cycle;Signal;HPM_P1;HPM_P2
2022/01/15 00:01:31;;;;;;;22.50;9.33;;;;;;;6.22;75.83;102798.03;5084145;28;20176;-67
2022/01/15 00:03:56;;;;;;;28.43;8.50;;;;;;;6.21;75.55;102800.50;5101730;28;20172;-69
2022/01/15 00:06:22;;;;;;;22.40;9.67;;;;;;;6.00;76.28;102795.81;5101488;28;20196;-67
2022/01/15 00:08:47;;;;;;;29.60;10.27;;;;;;;5.84;76.30;102798.22;5104999;28;20171;-66
2022/01/15 00:11:12;;;;;;;24.77;8.23;;;;;;;5.96;75.80;102800.69;5104038;28;20180;-66
2022/01/15 00:13:40;;;;;;;18.17;8.30;;;;;;;6.06;74.75;102803.97;5121618;28;20210;-64
2022/01/15 00:16:12;;;;;;;20.50;8.37;;;;;;;5.98;74.91;102804.28;5121868;28;20476;-66
2022/01/15 00:18:44;;;;;;;27.83;8.33;;;;;;;6.00;75.05;102800.13;5120346;28;20428;-66
2022/01/15 00:21:10;;;;;;;21.40;7.53;;;;;;;6.19;74.21;102796.94;5121501;28;20445;-65
2022/01/15 00:23:35;;;;;;;21.43;8.23;;;;;;;6.36;72.69;102798.88;5111359;28;20457;-66
2022/01/15 00:26:01;;;;;;;20.80;8.67;;;;;;;5.92;73.51;102797.00;5101626;28;20749;-69
2022/01/15 00:28:26;;;;;;;21.60;7.43;;;;;;;6.38;72.96;102799.84;5101841;28;20251;-68
2022/01/15 00:30:52;;;;;;;19.40;7.37;;;;;;;6.48;72.01;102788.34;5121302;28;20228;-68
2022/01/15 00:33:17;;;;;;;22.90;6.97;;;;;;;6.44;72.13;102788.97;5103792;28;20223;-63
2022/01/15 00:35:42;;;;;;;16.03;8.03;;;;;;;6.14;72.48;102788.00;5102210;28;20192;-64
2022/01/15 00:38:08;;;;;;;18.53;7.33;;;;;;;6.06;72.38;102785.84;5100525;28;20172;-66
2022/01/15 00:40:33;;;;;;;13.17;6.20;;;;;;;6.12;72.26;102792.22;5101465;28;20176;-66
2022/01/15 00:42:58;;;;;;;18.30;6.63;;;;;;;6.18;72.39;102790.88;5101865;28;20168;-64
2022/01/15 00:45:24;;;;;;;20.20;7.37;;;;;;;6.12;71.61;102785.31;5117440;28;20175;-64
2022/01/15 00:47:50;;;;;;;10.83;5.30;;;;;;;12.43;81.89;102758.91;5121462;28;20449;-61
2022/01/15 00:50:16;;;;;;;18.57;5.77;;;;;;;13.94;63.96;102746.13;5119251;28;20215;-61
2022/01/15 00:52:42;;;;;;;22.10;6.20;;;;;;;13.85;57.11;102746.75;5105777;28;20941;-62
2022/01/15 00:55:08;;;;;;;15.00;6.20;;;;;;;14.06;54.40;102740.31;5100753;28;20522;-61
2022/01/15 00:57:33;;;;;;;21.03;7.07;;;;;;;10.41;54.99;102754.59;5100118;28;20180;-66
2022/01/15 00:59:58;;;;;;;30.57;7.20;;;;;;;8.48;61.28;102763.81;5087072;28;20446;-65
2022/01/15 01:02:24;;;;;;;16.40;6.17;;;;;;;7.86;64.22;102776.19;5080101;28;20267;-67
2022/01/15 01:04:49;;;;;;;14.80;6.50;;;;;;;7.49;65.95;102788.88;5080268;28;20165;-69
2022/01/15 01:07:14;;;;;;;22.33;6.70;;;;;;;6.87;67.59;102790.56;5080010;28;20200;-66
2022/01/15 01:12:35;;;;;;;22.43;6.87;;;;;;;6.88;67.90;102774.22;5099866;28;20180;-69
2022/01/15 01:22:58;;;;;;;16.57;5.70;;;;;;;6.58;70.09;102754.38;5083816;28;20414;-67
2022/01/15 01:25:31;;;;;;;12.20;5.70;;;;;;;6.69;69.77;102756.72;5099972;28;20221;-67
2022/01/15 01:28:04;;;;;;;29.80;7.00;;;;;;;6.34;69.90;102758.13;5099914;28;20414;-67
2022/01/15 01:30:36;;;;;;;19.40;7.00;;;;;;;6.79;69.11;102751.25;5098417;28;20430;-66
2022/01/15 01:35:43;;;;;;;21.57;8.50;;;;;;;6.69;69.10;102748.94;5104287;28;20392;-69
2022/01/15 01:38:32;;;;;;;23.13;6.87;;;;;;;6.71;69.28;102742.13;5086673;28;20410;-65
2022/01/15 01:40:59;;;;;;;24.57;7.70;;;;;;;6.48;69.15;102745.97;5086200;28;20394;-65
2022/01/15 01:46:00;;;;;;;24.73;8.20;;;;;;;6.74;70.18;102753.56;5074318;28;20414;-67
2022/01/15 01:48:25;;;;;;;16.50;6.07;;;;;;;6.55;68.92;102748.16;5080656;28;20199;-67
2022/01/15 01:50:51;;;;;;;18.67;7.17;;;;;;;6.48;70.69;102746.88;5099620;28;20809;-66
2022/01/15 01:53:16;;;;;;;18.20;6.93;;;;;;;6.79;68.87;102751.25;5099484;28;20212;-67
2022/01/15 01:55:41;;;;;;;22.13;6.67;;;;;;;6.63;69.31;102754.66;5099376;28;20541;-65
2022/01/15 01:58:07;;;;;;;24.90;8.07;;;;;;;6.68;68.69;102763.56;5080445;28;20185;-66
2022/01/15 02:00:32;;;;;;;19.47;6.73;;;;;;;6.82;69.19;102756.63;5079536;28;20528;-64
2022/01/15 02:02:58;;;;;;;16.40;5.67;;;;;;;6.71;69.04;102743.03;5079036;28;20164;-65
2022/01/15 02:05:23;;;;;;;17.13;6.47;;;;;;;6.88;69.90;102733.63;5079023;28;20553;-65
2022/01/15 02:07:49;;;;;;;18.87;5.67;;;;;;;6.53;69.48;102735.06;5094655;28;20187;-64
2022/01/15 02:10:17;;;;;;;14.53;6.57;;;;;;;6.72;69.72;102729.28;5099447;28;20543;-65
2022/01/15 02:12:44;;;;;;;16.40;6.40;;;;;;;6.68;69.63;102737.66;5098761;28;20172;-65
2022/01/15 02:15:14;;;;;;;16.27;6.60;;;;;;;6.51;68.81;102738.41;5098727;28;20418;-65
2022/01/15 02:17:40;;;;;;;17.30;7.10;;;;;;;6.24;70.61;102751.50;5098828;28;20868;-65
2022/01/15 02:25:47;;;;;;;20.57;6.77;;;;;;;6.54;70.06;102717.84;5098933;28;20509;-65
2022/01/15 02:28:13;;;;;;;14.00;6.90;;;;;;;6.60;69.87;102723.38;5098445;28;20468;-64
2022/01/15 02:30:38;;;;;;;19.00;6.90;;;;;;;6.95;70.20;102708.94;5099180;28;20406;-65
2022/01/15 02:33:05;;;;;;;15.20;6.00;;;;;;;6.58;70.46;102727.59;5098691;28;20510;-65
2022/01/15 02:35:30;;;;;;;17.63;8.10;;;;;;;6.48;70.80;102712.28;5096950;28;20430;-65
2022/01/15 02:38:03;;;;;;;18.07;7.73;;;;;;;6.47;70.62;102726.03;5099124;28;20406;-65
2022/01/15 02:40:29;;;;;;;14.90;6.80;;;;;;;6.59;70.17;102719.00;5098665;28;20768;-65
2022/01/15 02:42:56;;;;;;;18.60;8.13;;;;;;;6.63;70.66;102705.44;5098474;28;20450;-65
2022/01/15 02:45:22;;;;;;;19.53;8.30;;;;;;;6.64;70.86;102708.91;5085583;28;20199;-65
2022/01/15 02:48:02;;;;;;;13.90;6.07;;;;;;;6.48;71.63;102713.22;5078332;28;20418;-65
2022/01/15 02:50:29;;;;;;;18.03;7.00;;;;;;;6.46;72.89;102706.16;5063321;28;20418;-65
2022/01/15 02:52:54;;;;;;;19.20;7.80;;;;;;;6.33;74.03;102702.84;5073527;28;20956;-65
2022/01/15 02:55:20;;;;;;;15.83;7.70;;;;;;;6.31;74.41;102703.56;5090029;28;20521;-65
2022/01/15 02:57:45;;;;;;;20.37;8.30;;;;;;;6.18;75.45;102696.75;5098871;28;20253;-65
2022/01/15 03:00:11;;;;;;;15.83;7.47;;;;;;;6.08;75.42;102710.84;5097850;28;20183;-65
2022/01/15 03:02:36;;;;;;;18.37;7.30;;;;;;;6.06;75.94;102708.16;5093859;28;20226;-65
2022/01/15 03:05:02;;;;;;;19.83;7.90;;;;;;;6.09;76.11;102696.19;5079433;28;20438;-65
2022/01/15 03:07:27;;;;;;;19.10;7.27;;;;;;;6.06;76.50;102697.81;5078512;28;20197;-64
2022/01/15 03:09:53;;;;;;;12.40;9.17;;;;;;;6.09;75.32;102697.09;5078307;28;20275;-66
2022/01/15 03:12:18;;;;;;;14.97;6.60;;;;;;;6.27;74.74;102684.34;5080513;28;20176;-64
2022/01/15 03:14:45;;;;;;;15.73;7.73;;;;;;;5.98;75.42;102692.97;5098248;28;20211;-64
2022/01/15 03:17:10;;;;;;;25.77;8.03;;;;;;;5.60;77.80;102700.13;5098431;28;20529;-65
2022/01/15 03:19:36;;;;;;;15.20;7.27;;;;;;;6.03;76.44;102692.41;5097896;28;20415;-65
2022/01/15 03:22:02;;;;;;;19.27;7.07;;;;;;;6.12;75.75;102693.81;5096411;28;20176;-65
2022/01/15 03:24:27;;;;;;;15.87;7.33;;;;;;;6.13;76.74;102685.22;5098107;28;20183;-65
2022/01/15 03:26:52;;;;;;;17.27;7.60;;;;;;;5.86;77.11;102690.50;5102085;28;20410;-65
2022/01/15 03:29:18;;;;;;;20.07;8.00;;;;;;;6.11;76.14;102685.13;5102322;28;20175;-65
2022/01/15 03:31:43;;;;;;;13.13;6.80;;;;;;;6.16;75.42;102685.41;5092688;28;20484;-64
2022/01/15 03:34:08;;;;;;;19.40;6.80;;;;;;;6.28;74.95;102675.78;5081971;28;20244;-64
2022/01/15 03:36:34;;;;;;;18.27;7.30;;;;;;;5.99;75.85;102674.03;5081949;28;20227;-65
2022/01/15 03:38:59;;;;;;;13.60;7.40;;;;;;;6.13;75.90;102682.63;5081758;28;20260;-65
2022/01/15 03:41:24;;;;;;;16.30;6.93;;;;;;;6.13;74.73;102678.34;5088052;28;20183;-65
2022/01/15 03:43:50;;;;;;;17.37;6.37;;;;;;;6.07;75.35;102675.38;5101715;28;20223;-64
2022/01/15 03:46:15;;;;;;;13.13;6.90;;;;;;;6.24;74.46;102676.41;5102080;28;20176;-65
2022/01/15 03:48:40;;;;;;;14.80;7.50;;;;;;;5.96;75.86;102660.88;5102493;28;20168;-65
2022/01/15 03:51:06;;;;;;;22.23;7.27;;;;;;;5.77;76.38;102670.13;5099636;28;20173;-66
2022/01/15 03:53:31;;;;;;;15.97;6.23;;;;;;;5.97;75.43;102666.16;5101671;28;20212;-64
2022/01/15 03:55:56;;;;;;;14.97;7.00;;;;;;;6.07;75.35;102667.63;5102180;28;20168;-65
2022/01/15 03:58:22;;;;;;;13.33;6.70;;;;;;;5.77;75.91;102664.06;5101492;28;20183;-65
2022/01/15 04:00:48;;;;;;;14.70;6.90;;;;;;;6.14;74.65;102661.09;5101669;28;20226;-64
2022/01/15 04:03:13;;;;;;;20.40;7.67;;;;;;;6.09;75.04;102667.72;5112551;28;20176;-64
2022/01/15 04:05:38;;;;;;;17.07;7.03;;;;;;;6.22;75.05;102662.44;5082894;28;20654;-65
2022/01/15 04:08:06;;;;;;;14.33;6.57;;;;;;;6.02;74.84;102667.34;5101278;28;20241;-65
2022/01/15 04:10:31;;;;;;;16.60;6.20;;;;;;;6.11;74.45;102663.53;5116889;28;20183;-65
2022/01/15 04:12:56;;;;;;;11.33;6.10;;;;;;;5.89;75.50;102665.69;5121549;28;20861;-65
2022/01/15 04:15:22;;;;;;;14.63;6.60;;;;;;;6.02;75.60;102666.44;5121737;28;20221;-65
2022/01/15 04:17:48;;;;;;;12.30;6.13;;;;;;;6.21;74.33;102663.25;5116899;28;20208;-65
2022/01/15 04:20:18;;;;;;;16.00;7.10;;;;;;;6.18;73.79;102661.41;5101116;28;20184;-65
2022/01/15 04:22:43;;;;;;;14.20;6.80;;;;;;;5.45;77.75;102657.81;5101187;28;20422;-65
2022/01/15 04:25:09;;;;;;;16.60;6.53;;;;;;;5.77;75.23;102654.59;5107832;28;20440;-66
2022/01/15 04:27:34;;;;;;;16.83;6.43;;;;;;;5.21;76.07;102647.75;5121510;28;20440;-65
2022/01/15 04:30:03;;;;;;;14.13;7.20;;;;;;;5.33;76.45;102643.34;5121465;28;20175;-64
2022/01/15 04:32:30;;;;;;;20.20;6.87;;;;;;;5.57;76.38;102645.63;5122093;28;20225;-65
2022/01/15 04:34:55;;;;;;;13.60;6.20;;;;;;;5.55;75.96;102644.66;5117014;28;20512;-66
2022/01/15 04:37:23;;;;;;;13.00;6.97;;;;;;;5.71;75.63;102646.44;5100470;28;20500;-66
2022/01/15 04:39:49;;;;;;;20.60;7.37;;;;;;;5.50;75.82;102649.53;5101469;28;20188;-65
2022/01/15 04:42:15;;;;;;;14.80;6.70;;;;;;;5.25;77.06;102654.91;5100734;28;20426;-64
2022/01/15 04:44:42;;;;;;;11.80;7.30;;;;;;;5.06;77.83;102653.75;5102467;28;20196;-64
2022/01/15 04:47:07;;;;;;;13.63;6.37;;;;;;;5.39;77.79;102642.81;5103771;28;20420;-64
2022/01/15 04:49:33;;;;;;;11.03;6.50;;;;;;;5.48;76.46;102648.56;5103376;28;20800;-66
2022/01/15 04:51:59;;;;;;;12.77;6.70;;;;;;;5.30;76.24;102650.00;5112001;28;20220;-65
2022/01/15 04:54:24;;;;;;;13.83;6.70;;;;;;;5.32;76.33;102648.44;5100534;28;20245;-65
2022/01/15 04:56:50;;;;;;;17.77;7.97;;;;;;;5.38;76.15;102648.78;5080690;28;20783;-65
2022/01/15 04:59:15;;;;;;;14.33;7.73;;;;;;;5.55;76.48;102647.25;5062904;28;20264;-64
2022/01/15 05:01:40;;;;;;;13.90;6.67;;;;;;;5.32;76.62;102649.31;5080660;28;20260;-65
2022/01/15 05:04:05;;;;;;;14.80;7.50;;;;;;;5.15;77.19;102648.25;5079984;28;20176;-65
2022/01/15 05:06:31;;;;;;;11.87;6.87;;;;;;;5.17;76.29;102658.72;5097039;28;20489;-65
2022/01/15 05:09:04;;;;;;;10.07;7.00;;;;;;;5.43;76.27;102659.44;5100591;28;20498;-64
2022/01/15 05:11:43;;;;;;;8.23;7.03;;;;;;;5.10;76.79;102664.28;5082542;28;20183;-64
2022/01/15 05:14:08;;;;;;;9.17;6.30;;;;;;;5.14;77.11;102662.00;5082036;28;20497;-64
2022/01/15 05:16:33;;;;;;;11.73;7.13;;;;;;;5.16;77.05;102668.13;5081618;28;20447;-64
2022/01/15 05:18:59;;;;;;;11.00;7.20;;;;;;;5.15;76.35;102663.75;5091635;28;20206;-65
2022/01/15 05:21:24;;;;;;;13.00;7.10;;;;;;;5.09;77.00;102658.22;5084033;28;20582;-64
2022/01/15 05:23:49;;;;;;;15.23;7.07;;;;;;;4.89;77.13;102672.47;5095355;28;20180;-65
2022/01/15 05:26:14;;;;;;;14.10;7.10;;;;;;;4.78;78.10;102665.72;5085566;28;20257;-65
2022/01/15 05:28:40;;;;;;;12.23;7.60;;;;;;;5.11;76.61;102668.66;5094237;28;20181;-65
2022/01/15 05:31:05;;;;;;;11.20;6.83;;;;;;;5.00;77.58;102663.69;5092778;28;20188;-64
2022/01/15 05:33:30;;;;;;;19.60;7.53;;;;;;;4.78;77.68;102660.53;5093620;28;20337;-64
2022/01/15 05:35:56;;;;;;;22.10;8.03;;;;;;;4.83;77.27;102656.53;5088559;28;20188;-65
2022/01/15 05:38:21;;;;;;;11.57;7.73;;;;;;;5.08;77.52;102655.53;5092194;28;20226;-65
2022/01/15 05:40:46;;;;;;;12.67;8.57;;;;;;;5.04;76.71;102651.84;5089666;28;20206;-64
2022/01/15 05:43:12;;;;;;;11.10;7.57;;;;;;;5.14;76.34;102653.31;5087210;28;20173;-64
2022/01/15 05:45:37;;;;;;;15.60;8.23;;;;;;;5.06;76.77;102658.03;5082201;28;20508;-64
2022/01/15 05:48:02;;;;;;;12.70;7.87;;;;;;;4.80;77.90;102654.66;5093711;28;20176;-63
2022/01/15 05:50:28;;;;;;;11.77;8.50;;;;;;;4.97;77.20;102653.16;5089005;28;20550;-63
2022/01/15 05:52:53;;;;;;;17.40;8.00;;;;;;;4.78;77.75;102645.03;5093924;28;20482;-64
2022/01/15 05:55:18;;;;;;;12.50;7.80;;;;;;;4.66;78.12;102647.72;5087189;28;20180;-63
2022/01/15 05:57:44;;;;;;;12.73;8.30;;;;;;;4.87;77.87;102651.69;5087244;28;20189;-64
2022/01/15 06:00:09;;;;;;;11.60;7.80;;;;;;;4.90;77.56;102643.25;5093432;28;20211;-65
2022/01/15 06:02:35;;;;;;;14.27;8.87;;;;;;;4.79;78.30;102649.38;5081816;28;20215;-64
2022/01/15 06:05:00;;;;;;;15.37;8.17;;;;;;;4.80;77.80;102638.25;5093596;28;20936;-64
2022/01/15 06:07:26;;;;;;;23.70;8.57;;;;;;;4.84;78.08;102640.25;5083978;28;20272;-65
2022/01/15 06:09:51;;;;;;;11.50;7.50;;;;;;;4.81;77.99;102645.22;5089303;28;20261;-64
2022/01/15 06:12:16;;;;;;;15.10;8.07;;;;;;;4.89;78.01;102649.19;5086186;28;20205;-64
2022/01/15 06:14:42;;;;;;;11.53;8.23;;;;;;;4.77;78.06;102658.75;5083936;28;20236;-66
2022/01/15 06:17:08;;;;;;;11.47;8.73;;;;;;;4.55;78.46;102653.06;5092130;28;20164;-63
2022/01/15 06:19:35;;;;;;;17.40;9.00;;;;;;;4.89;77.87;102652.66;5089054;28;20184;-63
2022/01/15 06:22:00;;;;;;;12.27;8.63;;;;;;;4.66;78.11;102640.84;5084591;28;20472;-64
2022/01/15 06:24:25;;;;;;;13.17;7.93;;;;;;;4.75;78.40;102643.16;5093180;28;20454;-63
2022/01/15 06:26:51;;;;;;;13.60;8.80;;;;;;;4.57;78.77;102644.53;5094199;28;20541;-63
2022/01/15 06:29:16;;;;;;;15.77;9.73;;;;;;;4.77;78.66;102656.16;5083616;28;20196;-64
2022/01/15 06:31:42;;;;;;;16.80;8.57;;;;;;;4.80;78.51;102659.81;5093276;28;20457;-63
2022/01/15 06:34:07;;;;;;;10.07;8.23;;;;;;;4.94;77.88;102652.97;5083254;28;20243;-63
2022/01/15 06:36:32;;;;;;;14.17;9.23;;;;;;;4.58;79.53;102656.66;5095319;28;20180;-63
2022/01/15 06:38:58;;;;;;;16.60;9.33;;;;;;;4.77;78.45;102659.63;5081097;28;20176;-63
2022/01/15 06:41:23;;;;;;;16.53;9.47;;;;;;;5.00;77.61;102649.88;5087637;28;20541;-64
2022/01/15 06:43:48;;;;;;;11.53;8.80;;;;;;;4.53;78.50;102641.78;5096651;28;20200;-64
2022/01/15 06:46:14;;;;;;;19.03;9.53;;;;;;;4.80;77.82;102648.59;5082267;28;20558;-64
2022/01/15 06:48:39;;;;;;;13.40;10.10;;;;;;;4.68;79.50;102648.69;5094845;28;20200;-64
2022/01/15 06:51:04;;;;;;;13.60;10.47;;;;;;;4.64;79.49;102652.78;5084594;28;20180;-64
2022/01/15 06:53:30;;;;;;;16.43;11.10;;;;;;;4.54;78.92;102648.69;5087714;28;20227;-63
2022/01/15 06:55:56;;;;;;;16.07;9.70;;;;;;;4.34;79.63;102647.41;5090687;28;20179;-64
2022/01/15 06:58:22;;;;;;;18.90;10.60;;;;;;;4.33;79.24;102645.63;5081052;28;20191;-63
2022/01/15 07:00:49;;;;;;;18.03;11.20;;;;;;;4.31;79.37;102649.78;5090128;28;20441;-63
2022/01/15 07:03:14;;;;;;;15.80;11.90;;;;;;;4.55;78.78;102641.88;5073014;28;20414;-62
2022/01/15 07:05:39;;;;;;;16.70;11.93;;;;;;;4.34;79.22;102647.41;5089109;28;20412;-64
2022/01/15 07:08:05;;;;;;;20.77;13.10;;;;;;;4.42;79.34;102659.94;5083091;28;20184;-64
2022/01/15 07:10:30;;;;;;;19.50;11.07;;;;;;;4.56;78.78;102659.16;5089934;28;20185;-64
2022/01/15 07:12:55;;;;;;;15.60;10.10;;;;;;;4.34;78.83;102657.75;5093072;28;20223;-63
2022/01/15 07:15:21;;;;;;;14.80;10.20;;;;;;;4.00;80.66;102662.34;5086336;28;20607;-64
2022/01/15 07:17:47;;;;;;;17.00;10.10;;;;;;;4.48;79.40;102652.56;5088144;28;20184;-64
2022/01/15 07:20:14;;;;;;;11.70;9.30;;;;;;;4.10;80.05;102648.34;5084019;28;20189;-64
2022/01/15 07:22:40;;;;;;;13.20;9.00;;;;;;;4.16;80.53;102648.78;5084142;28;20708;-63
2022/01/15 07:25:06;;;;;;;13.50;8.57;;;;;;;4.35;79.18;102654.34;5083576;28;20447;-64
2022/01/15 07:27:31;;;;;;;12.40;8.00;;;;;;;4.06;79.76;102647.28;5087966;28;20177;-63
2022/01/15 07:29:57;;;;;;;11.20;8.03;;;;;;;4.42;79.77;102649.59;5086773;28;20445;-63
2022/01/15 07:32:22;;;;;;;10.67;7.93;;;;;;;4.17;79.95;102643.72;5085367;28;20191;-63
2022/01/15 07:34:47;;;;;;;12.43;8.53;;;;;;;4.44;80.06;102643.75;5093777;28;20208;-63
2022/01/15 07:37:14;;;;;;;11.60;8.33;;;;;;;4.23;79.36;102648.38;5085747;28;20180;-63
2022/01/15 07:39:39;;;;;;;9.47;7.67;;;;;;;4.38;78.72;102645.91;5087312;28;20173;-63
2022/01/15 07:42:05;;;;;;;9.50;7.40;;;;;;;4.70;77.76;102644.53;5075175;28;20491;-63
2022/01/15 07:44:31;;;;;;;12.10;7.03;;;;;;;4.80;78.40;102641.72;5088051;28;20201;-64
2022/01/15 07:46:56;;;;;;;10.47;7.70;;;;;;;4.71;77.94;102639.47;5093340;28;20418;-65
2022/01/15 07:49:21;;;;;;;9.50;6.60;;;;;;;4.81;77.87;102645.22;5085400;28;20245;-63
2022/01/15 07:51:47;;;;;;;28.73;16.77;;;;;;;4.78;79.21;102645.03;5085146;28;20248;-64
2022/01/15 07:54:12;;;;;;;36.23;20.13;;;;;;;4.66;79.12;102642.56;5093518;28;20554;-63
2022/01/15 07:56:37;;;;;;;9.50;7.70;;;;;;;4.83;78.17;102643.63;5083059;28;20259;-63
2022/01/15 07:59:03;;;;;;;9.20;6.77;;;;;;;4.90;77.60;102645.81;5077863;28;20208;-64
2022/01/15 08:01:28;;;;;;;10.10;7.40;;;;;;;4.50;77.75;102644.13;5086102;28;20331;-63
2022/01/15 08:03:53;;;;;;;8.50;7.23;;;;;;;4.63;78.26;102643.25;5088295;28;20180;-63
2022/01/15 08:06:19;;;;;;;12.57;7.60;;;;;;;4.95;77.32;102628.91;5086211;28;20180;-63
2022/01/15 08:08:44;;;;;;;10.57;8.00;;;;;;;4.68;77.69;102634.13;5081826;28;20237;-62
2022/01/15 08:11:09;;;;;;;10.73;7.13;;;;;;;5.04;77.42;102641.50;5087572;28;20188;-62
2022/01/15 08:13:35;;;;;;;10.63;6.73;;;;;;;4.99;77.21;102632.56;5094880;28;20215;-62
2022/01/15 08:16:04;;;;;;;13.37;7.80;;;;;;;5.49;75.65;102628.75;5087452;28;20181;-63
2022/01/15 08:18:31;;;;;;;8.50;6.87;;;;;;;5.12;76.79;102642.88;5082558;28;20173;-64
2022/01/15 08:20:57;;;;;;;8.90;7.10;;;;;;;5.15;76.53;102626.69;5090665;28;20689;-63
2022/01/15 08:23:22;;;;;;;10.30;7.47;;;;;;;5.38;75.76;102628.97;5076197;28;20426;-62
2022/01/15 08:25:47;;;;;;;14.03;7.33;;;;;;;5.34;75.45;102627.00;5086152;28;20259;-63
2022/01/15 08:28:13;;;;;;;12.63;8.03;;;;;;;5.38;75.86;102630.69;5087200;28;20206;-63
2022/01/15 08:30:38;;;;;;;12.70;7.20;;;;;;;5.30;75.57;102630.19;5070301;28;20176;-64
2022/01/15 08:33:04;;;;;;;10.03;6.70;;;;;;;5.21;76.58;102632.25;5086728;28;20238;-63
2022/01/15 08:35:29;;;;;;;10.27;6.70;;;;;;;5.78;74.59;102621.84;5091157;28;20212;-63
2022/01/15 08:37:55;;;;;;;11.17;6.27;;;;;;;5.26;75.31;102623.06;5082111;28;20195;-63
2022/01/15 08:40:21;;;;;;;9.17;7.07;;;;;;;5.68;74.67;102613.56;5081883;28;20177;-63
2022/01/15 08:42:48;;;;;;;8.20;5.60;;;;;;;5.81;73.73;102624.63;5065240;28;20493;-62
2022/01/15 08:45:15;;;;;;;9.63;6.13;;;;;;;5.74;73.50;102620.78;5088113;28;20200;-62
2022/01/15 08:47:40;;;;;;;12.17;5.93;;;;;;;6.19;72.83;102618.25;5098453;28;20698;-63
2022/01/15 08:50:07;;;;;;;7.50;6.20;;;;;;;6.24;71.98;102624.59;5093210;28;20430;-63
2022/01/15 08:52:33;;;;;;;7.63;6.10;;;;;;;6.66;72.05;102625.25;5083229;28;20223;-63
2022/01/15 08:54:58;;;;;;;7.77;6.40;;;;;;;6.70;70.65;102624.59;5094916;28;20796;-63
2022/01/15 08:57:24;;;;;;;7.50;5.30;;;;;;;6.77;69.52;102619.78;5097501;28;20272;-64
2022/01/15 08:59:50;;;;;;;10.70;5.30;;;;;;;5.81;72.22;102625.50;5083135;28;20199;-64
2022/01/15 09:02:15;;;;;;;9.97;6.40;;;;;;;6.61;71.44;102621.50;5083381;28;20193;-64
2022/01/15 09:04:41;;;;;;;14.27;7.10;;;;;;;6.78;69.79;102612.09;5086013;28;20433;-69
2022/01/15 09:07:08;;;;;;;10.53;5.73;;;;;;;6.61;70.82;102615.44;5086665;28;20259;-64
2022/01/15 09:09:33;;;;;;;9.17;6.10;;;;;;;6.83;69.61;102612.31;5088511;28;20184;-64
2022/01/15 09:11:58;;;;;;;8.40;5.60;;;;;;;6.63;69.67;102616.41;5086571;28;20430;-65
2022/01/15 09:14:24;;;;;;;9.60;5.93;;;;;;;6.91;68.99;102611.03;5100404;28;20482;-67
2022/01/15 09:16:49;;;;;;;8.83;5.40;;;;;;;7.20;68.42;102617.81;5064761;28;20535;-65
2022/01/15 09:19:14;;;;;;;9.53;5.23;;;;;;;7.14;68.80;102614.00;5084868;28;20457;-71
2022/01/15 09:21:40;;;;;;;5.53;4.93;;;;;;;7.56;67.54;102594.63;5082255;28;20181;-66
2022/01/15 09:24:05;;;;;;;7.47;5.80;;;;;;;8.02;65.92;102595.19;5083311;28;20442;-66
2022/01/15 09:26:47;;;;;;;9.67;5.77;;;;;;;8.06;66.19;102602.31;5086199;28;20188;-65
2022/01/15 09:31:58;;;;;;;8.93;5.40;;;;;;;7.71;65.51;102604.91;5081145;28;20412;-66
2022/01/15 09:34:26;;;;;;;8.07;5.27;;;;;;;7.83;66.07;102598.56;5094804;28;20444;-65
2022/01/15 09:36:51;;;;;;;6.60;5.80;;;;;;;7.18;68.35;102600.38;5080088;28;20180;-64
2022/01/15 09:39:18;;;;;;;8.20;5.50;;;;;;;8.24;65.59;102600.63;5088366;28;20481;-67
2022/01/15 09:41:46;;;;;;;9.83;5.63;;;;;;;6.93;68.80;102600.75;5085630;28;20531;-67
2022/01/15 09:44:13;;;;;;;10.07;5.83;;;;;;;6.89;68.72;102600.59;5089110;28;20432;-66
2022/01/15 09:46:39;;;;;;;10.70;5.70;;;;;;;7.25;67.98;102600.81;5087089;28;20466;-66
2022/01/15 09:49:05;;;;;;;7.97;5.30;;;;;;;7.48;68.00;102602.81;5083065;28;20430;-67
2022/01/15 09:51:34;;;;;;;7.40;5.00;;;;;;;6.74;69.05;102603.22;5066573;28;20509;-65
2022/01/15 09:54:02;;;;;;;11.97;5.53;;;;;;;6.91;68.63;102605.84;5104717;28;20458;-64
2022/01/15 09:56:28;;;;;;;13.30;5.73;;;;;;;7.11;68.25;102606.06;5098713;28;20692;-64
2022/01/15 09:58:54;;;;;;;8.67;5.10;;;;;;;6.85;69.97;102603.81;5082755;28;20445;-66
2022/01/15 10:01:19;;;;;;;8.30;5.70;;;;;;;6.91;68.60;102606.78;5089416;28;20172;-66
2022/01/15 10:03:45;;;;;;;8.53;5.43;;;;;;;6.97;68.70;102606.22;5106974;28;20449;-66
2022/01/15 10:06:11;;;;;;;10.57;6.37;;;;;;;6.93;68.99;102596.47;5099123;28;20178;-66
2022/01/15 10:08:37;;;;;;;10.47;5.40;;;;;;;6.94;69.69;102599.94;5104750;28;20456;-66
2022/01/15 10:11:07;;;;;;;11.73;7.17;;;;;;;7.24;69.15;102592.94;5105676;28;20212;-65
2022/01/15 10:13:42;;;;;;;14.07;7.67;;;;;;;7.24;68.47;102595.53;5108067;28;20547;-66
2022/01/15 10:16:07;;;;;;;8.77;5.77;;;;;;;7.32;68.79;102593.31;5104844;28;20429;-66
2022/01/15 10:18:35;;;;;;;10.60;6.53;;;;;;;7.25;69.48;102592.09;5102134;28;20392;-65
2022/01/15 10:21:26;;;;;;;9.47;6.23;;;;;;;7.41;67.29;102578.25;5096280;28;20182;-64
2022/01/15 10:23:56;;;;;;;9.23;6.03;;;;;;;7.64;67.68;102579.44;5106037;28;20481;-64
2022/01/15 10:26:23;;;;;;;9.43;6.10;;;;;;;7.83;66.97;102575.19;5114557;28;20558;-65
2022/01/15 10:29:13;;;;;;;9.20;5.23;;;;;;;7.83;66.61;102575.19;5113418;28;20404;-66
2022/01/15 10:31:41;;;;;;;10.00;6.20;;;;;;;7.59;67.63;102574.03;5109253;28;20418;-66
2022/01/15 10:34:29;;;;;;;15.67;6.13;;;;;;;7.27;68.78;102572.34;5103305;28;20919;-66
2022/01/15 10:37:19;;;;;;;9.97;6.80;;;;;;;7.34;68.84;102574.44;5101245;28;20754;-63
2022/01/15 10:40:00;;;;;;;9.20;5.63;;;;;;;7.22;68.57;102578.97;5110468;28;20516;-63
2022/01/15 10:42:26;;;;;;;8.90;5.90;;;;;;;7.54;68.34;102574.59;5101420;28;20782;-65
2022/01/15 10:44:59;;;;;;;11.23;7.20;;;;;;;7.31;68.83;102563.91;5103945;28;20478;-63
2022/01/15 10:47:30;;;;;;;9.27;5.60;;;;;;;7.50;68.04;102570.94;5109767;28;20465;-63
2022/01/15 10:50:01;;;;;;;11.77;6.07;;;;;;;7.61;66.47;102562.84;5094606;28;20406;-64
2022/01/15 10:52:27;;;;;;;18.80;6.63;;;;;;;7.39;68.47;102554.81;5088410;28;20458;-65
2022/01/15 10:55:13;;;;;;;14.43;6.87;;;;;;;7.28;68.42;102555.97;5092883;28;20499;-64
2022/01/15 10:57:45;;;;;;;9.13;6.23;;;;;;;7.74;67.74;102550.53;5086973;28;20451;-64
2022/01/15 11:00:30;;;;;;;14.50;6.30;;;;;;;7.84;66.85;102549.28;5093202;28;20433;-64
2022/01/15 11:03:00;;;;;;;10.87;6.93;;;;;;;8.00;65.82;102543.16;5062367;28;20412;-62
2022/01/15 11:05:25;;;;;;;12.40;6.30;;;;;;;8.07;64.90;102544.34;5090896;28;20442;-64
2022/01/15 11:07:52;;;;;;;12.20;6.13;;;;;;;8.59;63.87;102533.00;5086098;28;20689;-64
2022/01/15 11:10:17;;;;;;;12.90;6.80;;;;;;;8.89;62.97;102525.72;5080084;28;20433;-65
2022/01/15 11:12:43;;;;;;;9.67;6.80;;;;;;;8.47;63.56;102525.53;5085276;28;20423;-63
2022/01/15 11:15:08;;;;;;;14.50;8.07;;;;;;;8.43;64.20;102521.84;5092909;28;20219;-64
2022/01/15 11:17:34;;;;;;;8.37;5.53;;;;;;;7.76;65.41;102524.66;5081586;28;20260;-65
2022/01/15 11:20:03;;;;;;;8.33;6.00;;;;;;;8.53;63.66;102511.91;5083125;28;20169;-65
2022/01/15 11:22:28;;;;;;;10.60;6.73;;;;;;;8.37;63.81;102513.75;5079694;28;20250;-64
2022/01/15 11:24:54;;;;;;;10.87;6.30;;;;;;;8.46;63.14;102515.94;5093301;28;20394;-64
2022/01/15 11:27:19;;;;;;;14.13;7.10;;;;;;;8.64;63.03;102515.03;5065023;28;20168;-63
2022/01/15 11:29:46;;;;;;;12.30;6.00;;;;;;;8.34;63.10;102515.34;5088891;28;20829;-64
2022/01/15 11:32:15;;;;;;;15.60;6.67;;;;;;;9.15;60.78;102509.50;5084689;28;20183;-61
2022/01/15 11:34:44;;;;;;;11.43;6.40;;;;;;;9.09;60.50;102504.91;5075195;28;20502;-62
2022/01/15 11:37:19;;;;;;;10.70;5.73;;;;;;;9.06;60.01;102497.84;5077042;28;20441;-62
2022/01/15 11:39:45;;;;;;;13.63;7.27;;;;;;;9.22;60.59;102495.94;5089268;28;20781;-64
2022/01/15 11:42:28;;;;;;;10.93;6.10;;;;;;;9.06;60.99;102499.56;5064796;28;20864;-63
2022/01/15 11:44:53;;;;;;;10.93;6.60;;;;;;;9.13;61.76;102488.59;5088517;28;20398;-65
2022/01/15 11:47:22;;;;;;;13.57;7.47;;;;;;;9.39;60.89;102486.22;5086728;28;20682;-64
2022/01/15 11:49:51;;;;;;;10.77;7.20;;;;;;;8.79;63.22;102488.81;5098989;28;20190;-64